sensor_id;sensor_type;location;lat;lon;timestamp;temperature;humidity
69084;SHT31;56185;48.526;9.044;2023-05-10T00:01:21;15.13;89.40
69084;SHT31;56185;48.526;9.044;2023-05-10T00:03:46;15.14;90.28
69084;SHT31;56185;48.526;9.044;2023-05-10T00:06:11;15.17;89.66
69084;SHT31;56185;48.526;9.044;2023-05-10T00:08:36;15.20;89.21
69084;SHT31;56185;48.526;9.044;2023-05-10T00:11:02;15.19;88.82
69084;SHT31;56185;48.526;9.044;2023-05-10T00:13:27;15.14;89.08
69084;SHT31;56185;48.526;9.044;2023-05-10T00:15:53;15.03;89.83
69084;SHT31;56185;48.526;9.044;2023-05-10T00:18:18;15.00;89.55
69084;SHT31;56185;48.526;9.044;2023-05-10T00:20:44;14.89;89.30
69084;SHT31;56185;48.526;9.044;2023-05-10T00:23:09;14.76;89.23
69084;SHT31;56185;48.526;9.044;2023-05-10T00:25:34;14.71;90.20
69084;SHT31;56185;48.526;9.044;2023-05-10T00:27:59;14.77;89.68
69084;SHT31;56185;48.526;9.044;2023-05-10T00:30:25;14.76;89.82
69084;SHT31;56185;48.526;9.044;2023-05-10T00:32:50;14.80;89.50
69084;SHT31;56185;48.526;9.044;2023-05-10T00:35:15;14.79;89.77
69084;SHT31;56185;48.526;9.044;2023-05-10T00:37:41;14.61;90.36
69084;SHT31;56185;48.526;9.044;2023-05-10T00:40:06;14.51;91.79
69084;SHT31;56185;48.526;9.044;2023-05-10T00:42:32;14.66;89.73
69084;SHT31;56185;48.526;9.044;2023-05-10T00:44:57;14.58;90.77
69084;SHT31;56185;48.526;9.044;2023-05-10T00:47:22;14.59;90.40
69084;SHT31;56185;48.526;9.044;2023-05-10T00:49:48;14.49;91.20
69084;SHT31;56185;48.526;9.044;2023-05-10T00:52:13;14.39;91.93
69084;SHT31;56185;48.526;9.044;2023-05-10T00:54:38;14.52;91.51
69084;SHT31;56185;48.526;9.044;2023-05-10T00:57:04;14.62;91.10
69084;SHT31;56185;48.526;9.044;2023-05-10T00:59:29;14.65;90.62
69084;SHT31;56185;48.526;9.044;2023-05-10T01:01:55;14.68;89.79
69084;SHT31;56185;48.526;9.044;2023-05-10T01:04:20;14.56;90.93
69084;SHT31;56185;48.526;9.044;2023-05-10T01:06:45;14.45;90.11
69084;SHT31;56185;48.526;9.044;2023-05-10T01:09:10;14.55;89.21
69084;SHT31;56185;48.526;9.044;2023-05-10T01:11:38;14.45;90.45
69084;SHT31;56185;48.526;9.044;2023-05-10T01:14:03;14.59;89.30
69084;SHT31;56185;48.526;9.044;2023-05-10T01:16:32;14.46;89.22
69084;SHT31;56185;48.526;9.044;2023-05-10T01:18:59;14.54;89.10
69084;SHT31;56185;48.526;9.044;2023-05-10T01:24:09;14.46;89.93
69084;SHT31;56185;48.526;9.044;2023-05-10T01:27:05;14.49;89.24
69084;SHT31;56185;48.526;9.044;2023-05-10T01:30:08;14.46;89.17
69084;SHT31;56185;48.526;9.044;2023-05-10T01:41:01;14.42;88.12
69084;SHT31;56185;48.526;9.044;2023-05-10T01:43:33;14.39;89.40
69084;SHT31;56185;48.526;9.044;2023-05-10T01:46:08;14.38;88.99
69084;SHT31;56185;48.526;9.044;2023-05-10T01:48:34;14.32;89.15
69084;SHT31;56185;48.526;9.044;2023-05-10T01:50:59;14.25;89.88
69084;SHT31;56185;48.526;9.044;2023-05-10T01:53:25;14.36;89.71
69084;SHT31;56185;48.526;9.044;2023-05-10T01:55:53;14.28;89.13
69084;SHT31;56185;48.526;9.044;2023-05-10T01:58:22;14.29;89.35
69084;SHT31;56185;48.526;9.044;2023-05-10T02:00:49;14.36;89.54
69084;SHT31;56185;48.526;9.044;2023-05-10T02:03:16;14.36;88.94
69084;SHT31;56185;48.526;9.044;2023-05-10T02:05:44;14.39;88.37
69084;SHT31;56185;48.526;9.044;2023-05-10T02:08:11;14.22;89.93
69084;SHT31;56185;48.526;9.044;2023-05-10T02:10:37;14.17;89.63
69084;SHT31;56185;48.526;9.044;2023-05-10T02:13:05;14.26;88.87
69084;SHT31;56185;48.526;9.044;2023-05-10T02:15:32;14.08;89.39
69084;SHT31;56185;48.526;9.044;2023-05-10T02:17:58;13.97;87.93
69084;SHT31;56185;48.526;9.044;2023-05-10T02:20:25;14.18;87.88
69084;SHT31;56185;48.526;9.044;2023-05-10T02:22:52;14.14;88.04
69084;SHT31;56185;48.526;9.044;2023-05-10T02:25:20;13.98;89.21
69084;SHT31;56185;48.526;9.044;2023-05-10T02:27:47;14.07;88.07
69084;SHT31;56185;48.526;9.044;2023-05-10T02:30:13;14.03;88.33
69084;SHT31;56185;48.526;9.044;2023-05-10T02:32:39;14.13;87.54
69084;SHT31;56185;48.526;9.044;2023-05-10T02:35:06;14.00;88.57
69084;SHT31;56185;48.526;9.044;2023-05-10T02:37:32;14.07;88.56
69084;SHT31;56185;48.526;9.044;2023-05-10T02:39:59;14.05;88.54
69084;SHT31;56185;48.526;9.044;2023-05-10T02:42:27;14.10;87.86
69084;SHT31;56185;48.526;9.044;2023-05-10T02:44:54;14.11;87.83
69084;SHT31;56185;48.526;9.044;2023-05-10T02:47:21;14.03;88.08
69084;SHT31;56185;48.526;9.044;2023-05-10T02:49:47;13.96;88.84
69084;SHT31;56185;48.526;9.044;2023-05-10T02:52:16;14.07;88.05
69084;SHT31;56185;48.526;9.044;2023-05-10T02:54:45;14.05;88.08
69084;SHT31;56185;48.526;9.044;2023-05-10T02:57:15;14.07;88.28
69084;SHT31;56185;48.526;9.044;2023-05-10T02:59:41;13.98;87.97
69084;SHT31;56185;48.526;9.044;2023-05-10T03:02:07;13.93;87.24
69084;SHT31;56185;48.526;9.044;2023-05-10T03:04:32;13.81;87.55
69084;SHT31;56185;48.526;9.044;2023-05-10T03:06:57;13.87;87.80
69084;SHT31;56185;48.526;9.044;2023-05-10T03:09:23;13.84;88.13
69084;SHT31;56185;48.526;9.044;2023-05-10T03:17:02;13.60;88.95
69084;SHT31;56185;48.526;9.044;2023-05-10T03:19:55;13.62;89.13
69084;SHT31;56185;48.526;9.044;2023-05-10T03:22:38;13.47;89.45
69084;SHT31;56185;48.526;9.044;2023-05-10T03:25:06;13.62;89.22
69084;SHT31;56185;48.526;9.044;2023-05-10T03:27:34;13.59;89.10
69084;SHT31;56185;48.526;9.044;2023-05-10T03:30:01;13.50;89.13
69084;SHT31;56185;48.526;9.044;2023-05-10T03:32:28;13.46;89.81
69084;SHT31;56185;48.526;9.044;2023-05-10T03:34:54;13.42;89.72
69084;SHT31;56185;48.526;9.044;2023-05-10T03:37:19;13.40;90.15
69084;SHT31;56185;48.526;9.044;2023-05-10T03:39:44;13.52;89.84
69084;SHT31;56185;48.526;9.044;2023-05-10T03:42:10;13.59;90.09
69084;SHT31;56185;48.526;9.044;2023-05-10T03:44:35;13.52;90.19
69084;SHT31;56185;48.526;9.044;2023-05-10T03:47:00;13.59;89.79
69084;SHT31;56185;48.526;9.044;2023-05-10T03:49:25;13.57;89.84
69084;SHT31;56185;48.526;9.044;2023-05-10T03:51:50;13.62;89.99
69084;SHT31;56185;48.526;9.044;2023-05-10T03:54:16;13.66;90.51
69084;SHT31;56185;48.526;9.044;2023-05-10T03:56:41;13.65;90.52
69084;SHT31;56185;48.526;9.044;2023-05-10T03:59:06;13.66;90.80
69084;SHT31;56185;48.526;9.044;2023-05-10T04:01:31;13.66;90.51
69084;SHT31;56185;48.526;9.044;2023-05-10T04:03:57;13.69;89.88
69084;SHT31;56185;48.526;9.044;2023-05-10T04:06:22;13.71;89.87
69084;SHT31;56185;48.526;9.044;2023-05-10T04:08:47;13.69;90.07
69084;SHT31;56185;48.526;9.044;2023-05-10T04:11:12;13.66;90.31
69084;SHT31;56185;48.526;9.044;2023-05-10T04:13:38;13.66;90.40
69084;SHT31;56185;48.526;9.044;2023-05-10T04:16:04;13.74;89.91
69084;SHT31;56185;48.526;9.044;2023-05-10T04:18:30;13.69;90.40
69084;SHT31;56185;48.526;9.044;2023-05-10T04:20:55;13.71;90.18
69084;SHT31;56185;48.526;9.044;2023-05-10T04:23:20;13.83;89.59
69084;SHT31;56185;48.526;9.044;2023-05-10T04:25:46;13.77;89.64
69084;SHT31;56185;48.526;9.044;2023-05-10T04:28:11;13.76;89.78
69084;SHT31;56185;48.526;9.044;2023-05-10T04:30:36;13.73;89.95
69084;SHT31;56185;48.526;9.044;2023-05-10T04:33:01;13.77;89.96
69084;SHT31;56185;48.526;9.044;2023-05-10T04:35:27;13.81;89.36
69084;SHT31;56185;48.526;9.044;2023-05-10T04:37:53;13.84;89.23
69084;SHT31;56185;48.526;9.044;2023-05-10T04:40:18;13.80;89.30
69084;SHT31;56185;48.526;9.044;2023-05-10T04:42:43;13.93;88.81
69084;SHT31;56185;48.526;9.044;2023-05-10T04:45:09;13.87;89.15
69084;SHT31;56185;48.526;9.044;2023-05-10T04:47:34;13.91;88.76
69084;SHT31;56185;48.526;9.044;2023-05-10T04:50:00;13.91;88.57
69084;SHT31;56185;48.526;9.044;2023-05-10T04:52:25;13.93;88.29
69084;SHT31;56185;48.526;9.044;2023-05-10T04:54:50;13.93;87.71
69084;SHT31;56185;48.526;9.044;2023-05-10T04:57:16;13.94;88.42
69084;SHT31;56185;48.526;9.044;2023-05-10T04:59:41;13.94;88.68
69084;SHT31;56185;48.526;9.044;2023-05-10T05:02:06;13.83;89.14
69084;SHT31;56185;48.526;9.044;2023-05-10T05:04:31;13.87;88.56
69084;SHT31;56185;48.526;9.044;2023-05-10T05:06:57;13.93;88.10
69084;SHT31;56185;48.526;9.044;2023-05-10T05:09:22;13.93;88.09
69084;SHT31;56185;48.526;9.044;2023-05-10T05:11:47;13.87;88.71
69084;SHT31;56185;48.526;9.044;2023-05-10T05:14:12;13.96;87.98
69084;SHT31;56185;48.526;9.044;2023-05-10T05:16:38;13.97;87.97
69084;SHT31;56185;48.526;9.044;2023-05-10T05:19:03;13.97;88.26
69084;SHT31;56185;48.526;9.044;2023-05-10T05:21:28;13.94;88.04
69084;SHT31;56185;48.526;9.044;2023-05-10T05:23:54;13.91;87.99
69084;SHT31;56185;48.526;9.044;2023-05-10T05:26:19;13.81;87.40
69084;SHT31;56185;48.526;9.044;2023-05-10T05:28:44;13.90;88.04
69084;SHT31;56185;48.526;9.044;2023-05-10T05:31:10;13.80;88.47
69084;SHT31;56185;48.526;9.044;2023-05-10T05:33:35;13.77;88.59
69084;SHT31;56185;48.526;9.044;2023-05-10T05:36:04;13.83;89.12
69084;SHT31;56185;48.526;9.044;2023-05-10T05:38:30;13.81;89.04
69084;SHT31;56185;48.526;9.044;2023-05-10T05:40:56;13.77;88.91
69084;SHT31;56185;48.526;9.044;2023-05-10T05:43:21;13.71;89.75
69084;SHT31;56185;48.526;9.044;2023-05-10T05:45:46;13.74;89.59
69084;SHT31;56185;48.526;9.044;2023-05-10T05:48:11;13.84;89.66
69084;SHT31;56185;48.526;9.044;2023-05-10T05:50:37;13.63;90.12
69084;SHT31;56185;48.526;9.044;2023-05-10T05:53:02;13.77;89.72
69084;SHT31;56185;48.526;9.044;2023-05-10T05:55:27;13.74;89.86
69084;SHT31;56185;48.526;9.044;2023-05-10T05:57:52;13.71;89.99
69084;SHT31;56185;48.526;9.044;2023-05-10T06:00:18;13.66;90.08
69084;SHT31;56185;48.526;9.044;2023-05-10T06:02:43;13.60;90.71
69084;SHT31;56185;48.526;9.044;2023-05-10T06:05:08;13.66;91.14
69084;SHT31;56185;48.526;9.044;2023-05-10T06:07:33;13.78;90.45
69084;SHT31;56185;48.526;9.044;2023-05-10T06:09:59;13.78;90.21
69084;SHT31;56185;48.526;9.044;2023-05-10T06:12:24;13.84;89.93
69084;SHT31;56185;48.526;9.044;2023-05-10T06:14:49;13.91;89.96
69084;SHT31;56185;48.526;9.044;2023-05-10T06:17:14;13.87;89.36
69084;SHT31;56185;48.526;9.044;2023-05-10T06:19:40;13.90;89.73
69084;SHT31;56185;48.526;9.044;2023-05-10T06:22:05;13.93;89.41
69084;SHT31;56185;48.526;9.044;2023-05-10T06:24:30;14.00;89.81
69084;SHT31;56185;48.526;9.044;2023-05-10T06:26:55;14.04;89.77
69084;SHT31;56185;48.526;9.044;2023-05-10T06:29:21;14.13;88.54
69084;SHT31;56185;48.526;9.044;2023-05-10T06:31:53;14.07;88.63
69084;SHT31;56185;48.526;9.044;2023-05-10T06:34:19;14.21;89.07
69084;SHT31;56185;48.526;9.044;2023-05-10T06:36:44;14.20;88.90
69084;SHT31;56185;48.526;9.044;2023-05-10T06:39:09;14.15;88.94
69084;SHT31;56185;48.526;9.044;2023-05-10T06:41:34;14.24;89.26
69084;SHT31;56185;48.526;9.044;2023-05-10T06:44:00;14.20;88.57
69084;SHT31;56185;48.526;9.044;2023-05-10T06:46:25;14.22;88.54
69084;SHT31;56185;48.526;9.044;2023-05-10T06:48:50;14.18;88.56
69084;SHT31;56185;48.526;9.044;2023-05-10T06:51:15;14.22;88.90
69084;SHT31;56185;48.526;9.044;2023-05-10T06:53:41;14.28;89.13
69084;SHT31;56185;48.526;9.044;2023-05-10T06:56:09;14.29;89.14
69084;SHT31;56185;48.526;9.044;2023-05-10T06:58:34;14.31;88.13
69084;SHT31;56185;48.526;9.044;2023-05-10T07:01:04;14.29;88.59
69084;SHT31;56185;48.526;9.044;2023-05-10T07:03:29;14.32;88.93
69084;SHT31;56185;48.526;9.044;2023-05-10T07:06:02;14.31;87.92
69084;SHT31;56185;48.526;9.044;2023-05-10T07:08:27;14.25;86.95
69084;SHT31;56185;48.526;9.044;2023-05-10T07:10:53;14.25;87.41
69084;SHT31;56185;48.526;9.044;2023-05-10T07:13:18;14.18;87.73
69084;SHT31;56185;48.526;9.044;2023-05-10T07:15:43;14.26;87.51
69084;SHT31;56185;48.526;9.044;2023-05-10T07:18:08;14.22;88.35
69084;SHT31;56185;48.526;9.044;2023-05-10T07:20:34;14.21;87.93
69084;SHT31;56185;48.526;9.044;2023-05-10T07:22:59;14.22;88.69
69084;SHT31;56185;48.526;9.044;2023-05-10T07:25:24;14.25;88.63
69084;SHT31;56185;48.526;9.044;2023-05-10T07:27:49;14.29;89.46
69084;SHT31;56185;48.526;9.044;2023-05-10T07:30:15;14.29;89.02
69084;SHT31;56185;48.526;9.044;2023-05-10T07:32:40;14.39;89.26
69084;SHT31;56185;48.526;9.044;2023-05-10T07:35:05;14.38;88.53
69084;SHT31;56185;48.526;9.044;2023-05-10T07:37:31;14.44;88.11
69084;SHT31;56185;48.526;9.044;2023-05-10T07:39:56;14.42;87.33
69084;SHT31;56185;48.526;9.044;2023-05-10T07:42:21;14.41;87.12
69084;SHT31;56185;48.526;9.044;2023-05-10T07:44:49;14.42;86.72
69084;SHT31;56185;48.526;9.044;2023-05-10T07:47:14;14.45;86.41
69084;SHT31;56185;48.526;9.044;2023-05-10T07:49:39;14.35;85.68
69084;SHT31;56185;48.526;9.044;2023-05-10T07:52:04;14.34;87.17
69084;SHT31;56185;48.526;9.044;2023-05-10T07:54:30;14.36;87.61
69084;SHT31;56185;48.526;9.044;2023-05-10T07:56:55;14.44;86.05
69084;SHT31;56185;48.526;9.044;2023-05-10T07:59:20;14.41;85.36
69084;SHT31;56185;48.526;9.044;2023-05-10T08:01:45;14.41;86.11
69084;SHT31;56185;48.526;9.044;2023-05-10T08:04:11;14.51;86.07
69084;SHT31;56185;48.526;9.044;2023-05-10T08:06:36;14.49;86.58
69084;SHT31;56185;48.526;9.044;2023-05-10T08:09:01;14.49;86.63
69084;SHT31;56185;48.526;9.044;2023-05-10T08:11:27;14.52;85.14
69084;SHT31;56185;48.526;9.044;2023-05-10T08:13:52;14.49;84.44
69084;SHT31;56185;48.526;9.044;2023-05-10T08:16:17;14.56;85.47
69084;SHT31;56185;48.526;9.044;2023-05-10T08:18:44;14.59;86.45
69084;SHT31;56185;48.526;9.044;2023-05-10T08:21:09;14.56;84.50
69084;SHT31;56185;48.526;9.044;2023-05-10T08:23:35;14.71;85.57
69084;SHT31;56185;48.526;9.044;2023-05-10T08:26:03;14.54;84.15
69084;SHT31;56185;48.526;9.044;2023-05-10T08:28:28;14.65;85.13
69084;SHT31;56185;48.526;9.044;2023-05-10T08:30:53;14.71;85.30
69084;SHT31;56185;48.526;9.044;2023-05-10T08:33:19;14.80;83.87
69084;SHT31;56185;48.526;9.044;2023-05-10T08:35:44;14.82;83.05
69084;SHT31;56185;48.526;9.044;2023-05-10T08:38:09;14.87;83.26
69084;SHT31;56185;48.526;9.044;2023-05-10T08:40:36;14.90;83.53
69084;SHT31;56185;48.526;9.044;2023-05-10T08:43:05;14.94;83.86
69084;SHT31;56185;48.526;9.044;2023-05-10T08:45:32;15.08;84.16
69084;SHT31;56185;48.526;9.044;2023-05-10T08:48:00;15.04;83.00
69084;SHT31;56185;48.526;9.044;2023-05-10T08:50:26;15.17;82.68
69084;SHT31;56185;48.526;9.044;2023-05-10T08:52:52;15.20;82.81
69084;SHT31;56185;48.526;9.044;2023-05-10T08:55:20;15.16;83.04
69084;SHT31;56185;48.526;9.044;2023-05-10T08:57:46;15.11;82.85
69084;SHT31;56185;48.526;9.044;2023-05-10T09:00:13;15.19;82.63
69084;SHT31;56185;48.526;9.044;2023-05-10T09:02:38;15.10;81.01
69084;SHT31;56185;48.526;9.044;2023-05-10T09:05:04;15.06;80.78
69084;SHT31;56185;48.526;9.044;2023-05-10T09:07:30;15.23;81.77
69084;SHT31;56185;48.526;9.044;2023-05-10T09:09:55;15.22;78.56
69084;SHT31;56185;48.526;9.044;2023-05-10T09:12:22;15.30;81.14
69084;SHT31;56185;48.526;9.044;2023-05-10T09:14:48;15.30;78.66
69084;SHT31;56185;48.526;9.044;2023-05-10T09:17:14;15.27;79.00
69084;SHT31;56185;48.526;9.044;2023-05-10T09:19:39;15.08;77.07
69084;SHT31;56185;48.526;9.044;2023-05-10T09:22:05;15.04;78.30
69084;SHT31;56185;48.526;9.044;2023-05-10T09:24:30;15.10;78.35
69084;SHT31;56185;48.526;9.044;2023-05-10T09:26:57;15.14;78.07
69084;SHT31;56185;48.526;9.044;2023-05-10T09:29:22;15.31;79.86
69084;SHT31;56185;48.526;9.044;2023-05-10T09:31:51;15.28;78.01
69084;SHT31;56185;48.526;9.044;2023-05-10T09:34:28;15.26;77.23
69084;SHT31;56185;48.526;9.044;2023-05-10T09:36:59;15.51;77.54
69084;SHT31;56185;48.526;9.044;2023-05-10T09:39:35;15.62;79.28
69084;SHT31;56185;48.526;9.044;2023-05-10T09:42:10;15.75;77.80
69084;SHT31;56185;48.526;9.044;2023-05-10T09:44:35;15.86;76.51
69084;SHT31;56185;48.526;9.044;2023-05-10T09:47:01;15.89;76.23
69084;SHT31;56185;48.526;9.044;2023-05-10T09:49:27;15.93;74.32
69084;SHT31;56185;48.526;9.044;2023-05-10T09:52:08;15.92;74.56
69084;SHT31;56185;48.526;9.044;2023-05-10T09:54:33;15.91;74.70
69084;SHT31;56185;48.526;9.044;2023-05-10T09:56:59;15.91;74.71
69084;SHT31;56185;48.526;9.044;2023-05-10T09:59:26;15.79;72.83
69084;SHT31;56185;48.526;9.044;2023-05-10T10:01:59;15.78;73.67
69084;SHT31;56185;48.526;9.044;2023-05-10T10:04:25;15.82;73.64
69084;SHT31;56185;48.526;9.044;2023-05-10T10:07:02;15.82;72.77
69084;SHT31;56185;48.526;9.044;2023-05-10T10:09:28;15.68;75.00
69084;SHT31;56185;48.526;9.044;2023-05-10T10:11:54;15.59;76.89
69084;SHT31;56185;48.526;9.044;2023-05-10T10:14:20;15.47;77.69
69084;SHT31;56185;48.526;9.044;2023-05-10T10:16:46;15.31;75.27
69084;SHT31;56185;48.526;9.044;2023-05-10T10:19:11;15.40;76.45
69084;SHT31;56185;48.526;9.044;2023-05-10T10:21:37;15.38;76.46
69084;SHT31;56185;48.526;9.044;2023-05-10T10:35:49;16.16;76.52
69084;SHT31;56185;48.526;9.044;2023-05-10T10:44:43;16.44;74.04
69084;SHT31;56185;48.526;9.044;2023-05-10T10:52:41;16.26;74.88
69084;SHT31;56185;48.526;9.044;2023-05-10T10:55:14;16.06;74.34
69084;SHT31;56185;48.526;9.044;2023-05-10T11:00:24;15.68;70.91
69084;SHT31;56185;48.526;9.044;2023-05-10T11:02:52;15.71;69.87
69084;SHT31;56185;48.526;9.044;2023-05-10T11:05:34;15.57;68.75
69084;SHT31;56185;48.526;9.044;2023-05-10T11:08:07;15.44;70.96
69084;SHT31;56185;48.526;9.044;2023-05-10T11:10:33;15.16;69.65
69084;SHT31;56185;48.526;9.044;2023-05-10T11:13:09;15.19;71.36
69084;SHT31;56185;48.526;9.044;2023-05-10T11:15:36;15.26;73.68
69084;SHT31;56185;48.526;9.044;2023-05-10T11:18:24;15.24;71.74
69084;SHT31;56185;48.526;9.044;2023-05-10T11:21:01;15.38;71.59
69084;SHT31;56185;48.526;9.044;2023-05-10T11:23:47;15.37;73.42
69084;SHT31;56185;48.526;9.044;2023-05-10T11:26:13;15.35;70.88
69084;SHT31;56185;48.526;9.044;2023-05-10T11:28:43;15.35;72.38
69084;SHT31;56185;48.526;9.044;2023-05-10T11:31:09;15.28;73.10
69084;SHT31;56185;48.526;9.044;2023-05-10T11:33:55;15.24;73.28
69084;SHT31;56185;48.526;9.044;2023-05-10T11:36:23;15.08;72.27
69084;SHT31;56185;48.526;9.044;2023-05-10T11:38:49;15.19;74.89
69084;SHT31;56185;48.526;9.044;2023-05-10T11:41:16;15.14;74.22
69084;SHT31;56185;48.526;9.044;2023-05-10T11:43:42;15.06;73.76
69084;SHT31;56185;48.526;9.044;2023-05-10T11:46:11;15.06;75.30
69084;SHT31;56185;48.526;9.044;2023-05-10T11:48:41;14.99;73.93
69084;SHT31;56185;48.526;9.044;2023-05-10T11:51:07;14.96;75.59
69084;SHT31;56185;48.526;9.044;2023-05-10T11:53:33;14.99;75.24
69084;SHT31;56185;48.526;9.044;2023-05-10T11:56:05;14.93;74.25
69084;SHT31;56185;48.526;9.044;2023-05-10T11:58:31;15.04;74.34
69084;SHT31;56185;48.526;9.044;2023-05-10T12:01:01;15.11;73.07
69084;SHT31;56185;48.526;9.044;2023-05-10T12:03:27;15.19;72.45
69084;SHT31;56185;48.526;9.044;2023-05-10T12:05:53;15.28;72.95
69084;SHT31;56185;48.526;9.044;2023-05-10T12:08:24;15.30;71.49
69084;SHT31;56185;48.526;9.044;2023-05-10T12:10:50;15.43;71.32
69084;SHT31;56185;48.526;9.044;2023-05-10T12:13:15;15.45;72.65
69084;SHT31;56185;48.526;9.044;2023-05-10T12:15:41;15.55;72.28
69084;SHT31;56185;48.526;9.044;2023-05-10T12:18:09;15.59;72.95
69084;SHT31;56185;48.526;9.044;2023-05-10T12:20:34;15.62;74.82
69084;SHT31;56185;48.526;9.044;2023-05-10T12:22:59;15.71;73.18
69084;SHT31;56185;48.526;9.044;2023-05-10T12:25:30;15.79;75.90
69084;SHT31;56185;48.526;9.044;2023-05-10T12:27:59;15.88;76.54
69084;SHT31;56185;48.526;9.044;2023-05-10T12:30:29;15.82;76.18
69084;SHT31;56185;48.526;9.044;2023-05-10T12:33:00;15.79;74.74
69084;SHT31;56185;48.526;9.044;2023-05-10T12:35:25;15.89;73.37
69084;SHT31;56185;48.526;9.044;2023-05-10T12:37:51;15.92;75.17
69084;SHT31;56185;48.526;9.044;2023-05-10T12:40:16;15.93;74.29
69084;SHT31;56185;48.526;9.044;2023-05-10T12:42:42;15.96;72.19
69084;SHT31;56185;48.526;9.044;2023-05-10T12:45:08;15.96;72.47
69084;SHT31;56185;48.526;9.044;2023-05-10T12:47:34;16.05;72.44
69084;SHT31;56185;48.526;9.044;2023-05-10T12:50:00;16.12;71.50
69084;SHT31;56185;48.526;9.044;2023-05-10T12:52:26;16.19;72.36
69084;SHT31;56185;48.526;9.044;2023-05-10T12:54:52;16.14;70.30
69084;SHT31;56185;48.526;9.044;2023-05-10T12:57:17;16.22;71.13
69084;SHT31;56185;48.526;9.044;2023-05-10T12:59:43;16.19;69.98
69084;SHT31;56185;48.526;9.044;2023-05-10T13:02:08;16.24;70.10
69084;SHT31;56185;48.526;9.044;2023-05-10T13:04:33;16.19;68.66
69084;SHT31;56185;48.526;9.044;2023-05-10T13:06:59;16.27;69.21
69084;SHT31;56185;48.526;9.044;2023-05-10T13:09:27;16.27;68.74
69084;SHT31;56185;48.526;9.044;2023-05-10T13:11:52;16.24;67.01
69084;SHT31;56185;48.526;9.044;2023-05-10T13:14:17;16.32;68.32
69084;SHT31;56185;48.526;9.044;2023-05-10T13:16:43;16.32;66.22
69084;SHT31;56185;48.526;9.044;2023-05-10T13:19:08;16.43;68.01
69084;SHT31;56185;48.526;9.044;2023-05-10T13:21:33;16.39;66.89
69084;SHT31;56185;48.526;9.044;2023-05-10T13:23:58;16.49;66.41
69084;SHT31;56185;48.526;9.044;2023-05-10T13:26:24;16.56;66.88
69084;SHT31;56185;48.526;9.044;2023-05-10T13:28:49;16.39;66.60
69084;SHT31;56185;48.526;9.044;2023-05-10T13:31:14;16.46;67.93
69084;SHT31;56185;48.526;9.044;2023-05-10T13:33:39;16.40;65.97
69084;SHT31;56185;48.526;9.044;2023-05-10T13:36:06;16.34;66.76
69084;SHT31;56185;48.526;9.044;2023-05-10T13:38:31;16.37;65.79
69084;SHT31;56185;48.526;9.044;2023-05-10T13:40:56;16.44;65.33
69084;SHT31;56185;48.526;9.044;2023-05-10T13:43:21;16.39;65.46
69084;SHT31;56185;48.526;9.044;2023-05-10T13:45:47;16.39;65.27
69084;SHT31;56185;48.526;9.044;2023-05-10T13:48:12;16.34;65.55
69084;SHT31;56185;48.526;9.044;2023-05-10T13:50:38;16.36;65.85
69084;SHT31;56185;48.526;9.044;2023-05-10T13:53:03;16.29;68.08
69084;SHT31;56185;48.526;9.044;2023-05-10T13:55:29;16.32;67.23
69084;SHT31;56185;48.526;9.044;2023-05-10T13:57:54;16.32;66.69
69084;SHT31;56185;48.526;9.044;2023-05-10T14:00:19;16.41;67.49
69084;SHT31;56185;48.526;9.044;2023-05-10T14:02:44;16.41;65.39
69084;SHT31;56185;48.526;9.044;2023-05-10T14:05:22;16.43;65.20
69084;SHT31;56185;48.526;9.044;2023-05-10T14:07:50;16.56;65.94
69084;SHT31;56185;48.526;9.044;2023-05-10T14:10:15;16.61;67.10
69084;SHT31;56185;48.526;9.044;2023-05-10T14:12:40;16.56;67.40
69084;SHT31;56185;48.526;9.044;2023-05-10T14:15:06;16.56;65.34
69084;SHT31;56185;48.526;9.044;2023-05-10T14:17:32;16.46;65.22
69084;SHT31;56185;48.526;9.044;2023-05-10T14:19:57;16.56;65.10
69084;SHT31;56185;48.526;9.044;2023-05-10T14:22:22;16.41;64.45
69084;SHT31;56185;48.526;9.044;2023-05-10T14:24:48;16.44;66.04
69084;SHT31;56185;48.526;9.044;2023-05-10T14:27:13;16.50;66.09
69084;SHT31;56185;48.526;9.044;2023-05-10T14:29:38;16.46;66.28
69084;SHT31;56185;48.526;9.044;2023-05-10T14:32:04;16.54;66.61
69084;SHT31;56185;48.526;9.044;2023-05-10T14:34:29;16.67;64.34
69084;SHT31;56185;48.526;9.044;2023-05-10T14:36:54;16.53;64.31
69084;SHT31;56185;48.526;9.044;2023-05-10T14:39:19;16.65;65.13
69084;SHT31;56185;48.526;9.044;2023-05-10T14:41:45;16.65;64.26
69084;SHT31;56185;48.526;9.044;2023-05-10T14:44:10;16.68;65.50
69084;SHT31;56185;48.526;9.044;2023-05-10T14:46:35;16.60;63.33
69084;SHT31;56185;48.526;9.044;2023-05-10T14:49:01;16.61;66.09
69084;SHT31;56185;48.526;9.044;2023-05-10T14:51:26;16.56;63.94
69084;SHT31;56185;48.526;9.044;2023-05-10T14:53:51;16.64;64.53
69084;SHT31;56185;48.526;9.044;2023-05-10T14:56:16;16.61;65.69
69084;SHT31;56185;48.526;9.044;2023-05-10T14:58:42;16.60;65.68
69084;SHT31;56185;48.526;9.044;2023-05-10T15:01:07;16.63;65.54
69084;SHT31;56185;48.526;9.044;2023-05-10T15:03:32;16.68;65.25
69084;SHT31;56185;48.526;9.044;2023-05-10T15:05:58;16.65;64.30
69084;SHT31;56185;48.526;9.044;2023-05-10T15:08:23;16.70;64.92
69084;SHT31;56185;48.526;9.044;2023-05-10T15:10:49;16.70;64.76
69084;SHT31;56185;48.526;9.044;2023-05-10T15:13:14;16.67;65.38
69084;SHT31;56185;48.526;9.044;2023-05-10T15:15:39;16.59;66.11
69084;SHT31;56185;48.526;9.044;2023-05-10T15:18:04;16.72;65.75
69084;SHT31;56185;48.526;9.044;2023-05-10T15:20:30;16.72;64.98
69084;SHT31;56185;48.526;9.044;2023-05-10T15:22:55;16.68;63.38
69084;SHT31;56185;48.526;9.044;2023-05-10T15:25:20;16.68;64.37
69084;SHT31;56185;48.526;9.044;2023-05-10T15:27:46;16.67;65.01
69084;SHT31;56185;48.526;9.044;2023-05-10T15:30:11;16.72;61.24
69084;SHT31;56185;48.526;9.044;2023-05-10T15:32:37;16.75;64.28
69084;SHT31;56185;48.526;9.044;2023-05-10T15:35:02;16.80;63.56
69084;SHT31;56185;48.526;9.044;2023-05-10T15:37:28;16.77;61.66
69084;SHT31;56185;48.526;9.044;2023-05-10T15:39:53;16.67;63.90
69084;SHT31;56185;48.526;9.044;2023-05-10T15:42:18;16.81;63.19
69084;SHT31;56185;48.526;9.044;2023-05-10T15:44:44;16.80;62.69
69084;SHT31;56185;48.526;9.044;2023-05-10T15:47:09;16.87;61.93
69084;SHT31;56185;48.526;9.044;2023-05-10T15:49:34;16.77;59.87
69084;SHT31;56185;48.526;9.044;2023-05-10T15:51:59;16.65;62.14
69084;SHT31;56185;48.526;9.044;2023-05-10T15:54:25;16.70;62.94
69084;SHT31;56185;48.526;9.044;2023-05-10T15:56:50;16.67;61.47
69084;SHT31;56185;48.526;9.044;2023-05-10T15:59:15;16.70;61.23
69084;SHT31;56185;48.526;9.044;2023-05-10T16:01:40;16.63;61.55
69084;SHT31;56185;48.526;9.044;2023-05-10T16:04:06;16.61;65.05
69084;SHT31;56185;48.526;9.044;2023-05-10T16:06:31;16.67;62.86
69084;SHT31;56185;48.526;9.044;2023-05-10T16:08:56;16.72;63.29